Stillwater, OK

8:58 AM CDT on April 19, 2015 (GMT -0500)
Stillwater, East Side | | Change Station
CLOSE
Current Station
Personal Weather Station
Location: Stillwater, OK
Elevation: 935 ft
Nearby Weather Stations

Elev 935 ft 36.12 °N, 97.04 °W | Updated 21 seconds ago

Overcast
Overcast
56.7 °F
Feels Like 56.7 °F
N
4.4
Wind Variable Wind from NNW
Gusts 7.1 mph

Today
High -- | Low -- °F
--% Chance of Precip.
Yesterday
High -- | Low -- °F
Precip. -- in
6:50 AM 8:05 PM
New Moon, 1% visible
Pressure 29.77 in
Visibility 7.0 miles
Clouds Overcast 6000 ft
Dew Point 53 °F
Humidity 86%
Rainfall 0.02 in
Snow Depth Not available.
UV 0.0 out of 12
Pollen 9.90 out of 12
Air Quality Not available.
Flu Activity Regional
METAR KSWO 191253Z AUTO 31009KT 7SM -RA OVC060 12/11 A2979 RMK AO2 RAB04 SLP081 P0003 T01220106 TSNO

More Conditions Fewer Conditions

Pressure 29.77 in
Visibility 7.0 miles
Clouds Overcast 6000 ft
Dew Point 53 °F
Humidity 86%
Rainfall 0.02 in
Snow Depth Not available.
UV 0.0 out of 12
Pollen 9.90 out of 12
Air Quality Not available.
Flu Activity Regional
METAR KSWO 191253Z AUTO 31009KT 7SM -RA OVC060 12/11 A2979 RMK AO2 RAB04 SLP081 P0003 T01220106 TSNO

More Conditions Fewer Conditions

10-Day Weather Forecast

Almanac

Astronomy

Apr. 19, 2015 Rise Set
Actual Time
Civil Twilight
Nautical Twilight
Astronomical Twilight
Moon
Length of Visible Light
Length of Day
Tomorrow will be .
, % of the Moon is Illuminated

Today's Extremes

State Highs State Lows

Community

WunderPhotos

Upload Photos

1,814,795 photos uploaded!

WunderBlogs® & News

Nearby

Air Quality

  Air Quality AQ Index Pollutant
Not available.

Snow Depth

Station Depth Elevation

Earthquake Activity

City Distance Mag. Time & Date
Minimum magnitude displayed is 2.5.

Coastal Water Temperatures

Place Temperature

Stations

Nearby Weather Stations

Station Location Temp. Windchill Dew Point Humidity Wind Precip. Elev Updated Type